Terminal Aerodrome Forecast
Issued by NWS Sioux Falls, SD

Home | Current Version | Previous Version | Graphics & Text | Print | Product List | Glossary Off
Versions: 1 2 3 4 5 6 7 8 9 10 11 12 13 14 15 16 17 18 19 20 21 22 23 24 25 26 27 28

000
FTUS43 KFSD 022321
TAFSUX
TAF
KSUX 022321Z 0300/0324 17011KT P6SM SKC
     FM030200 15007KT P6SM SKC
     FM030600 15006KT P6SM SKC WS015/22040KT
     FM031600 18014G20KT P6SM SKC=

USA.gov is the U.S. government's official web portal to all federal, state and local government web resources and services.